Koushinmaru — JD3754 — position and weather

sailwx.info

Track history (hours):
 
Tides and Currents Weather Stations Pressure Air Temp Water Temp Dewpoint Dewpoint Depression Visibility Wind Speed Wind Dir Waves Ship Positions

Koushinmaru

Last reported at 2018-Jan-23 06:00 UTC. Time now 2018-Jan-23 06:08 UTC.
Position N 33°50' E 132°20'.

Length 75 m; draft 4.8 m.

Type: Ship. MMSI: 431005815.

Date/timePositionNaut miles runAvg speedWind from/ knotsBaromVisibWave heightAir tempDewpointWater temp
2018-Jan-23 06:00N 33°50' E 132°20'1411.2
2018-Jan-23 04:46N 34°00' E 132°31'512.8
2018-Jan-23 04:23N 34°03' E 132°26'6 9.5
2018-Jan-23 03:46N 34°08' E 132°30'311.1
2018-Jan-23 03:31N 34°11' E 132°30'1 1.5
2018-Jan-23 03:00N 34°12' E 132°29'0 0.0
2018-Jan-23 02:30N 34°12' E 132°29'0 0.0
2018-Jan-23 01:59N 34°12' E 132°29'0 0.0
2018-Jan-23 01:30N 34°12' E 132°29'0 0.0
2018-Jan-23 01:00N 34°12' E 132°29'0 0.0
2018-Jan-23 00:30N 34°12' E 132°29'1 1.2
2018-Jan-23 00:00N 34°11' E 132°30'0 0.2
2018-Jan-22 23:30N 34°11' E 132°30'0 0.0
2018-Jan-22 23:00N 34°11' E 132°30'0 0.0
2018-Jan-22 22:30N 34°11' E 132°30'0 0.0
2018-Jan-22 22:00N 34°11' E 132°30'0 0.0
2018-Jan-22 21:30N 34°11' E 132°30'0 0.0
2018-Jan-22 21:00N 34°11' E 132°30'0 0.0
2018-Jan-22 20:30N 34°11' E 132°30'0 0.0
2018-Jan-22 20:00N 34°12' E 132°30'0 0.0
2018-Jan-22 19:30N 34°11' E 132°30'0 0.0
2018-Jan-22 19:00N 34°11' E 132°30'0 0.0
2018-Jan-22 18:30N 34°11' E 132°30'0 0.1
2018-Jan-22 18:00N 34°11' E 132°30'0 0.0
2018-Jan-22 17:30N 34°11' E 132°30'510.4
2018-Jan-22 17:00N 34°17' E 132°30'611.1
2018-Jan-22 16:30N 34°17' E 132°24'611.3
2018-Jan-22 16:00N 34°12' E 132°20'712.9
2018-Jan-22 15:28N 34°06' E 132°24'813.1
2018-Jan-22 14:52N 34°00' E 132°31'613.1
2018-Jan-22 14:27N 33°55' E 132°30'714.3
2018-Jan-22 13:59N 33°49' E 132°26'713.9
2018-Jan-22 13:30N 33°43' E 132°22'1413.9
2018-Jan-22 12:27N 33°32' E 132°10'614.1
2018-Jan-22 12:00N 33°28' E 132°05'714.3
2018-Jan-22 11:30N 33°22' E 132°00'713.0
2018-Jan-22 10:59N 33°15' E 132°01'1213.1
2018-Jan-22 10:05N 33°04' E 132°06'11 0.4
2018-Jan-21 07:47N 33°15' E 132°01'413.0
2018-Jan-21 07:27N 33°18' E 131°58'613.5
2018-Jan-21 07:00N 33°18' E 131°51'612.9
2018-Jan-21 06:31N 33°18' E 131°43'2 1.1
2018-Jan-21 04:36N 33°16' E 131°41'0 0.0
2018-Jan-21 04:19N 33°16' E 131°41'0 0.0
2018-Jan-21 03:03N 33°16' E 131°41'0 0.0
2018-Jan-21 02:40N 33°16' E 131°41'0 0.6
2018-Jan-21 02:31N 33°16' E 131°41'2 3.4
2018-Jan-21 02:00N 33°18' E 131°41'3 5.1
2018-Jan-21 01:26N 33°21' E 131°41'0 0.0
2018-Jan-21 01:00N 33°21' E 131°41'0 0.0
2018-Jan-21 00:25N 33°21' E 131°41'0 0.1
2018-Jan-20 23:37N 33°21' E 131°41'3 9.5
2018-Jan-20 23:21N 33°19' E 131°42'410.6
2018-Jan-20 22:58N 33°15' E 131°45'0 0.1
2018-Jan-20 21:49N 33°15' E 131°45'0 0.0
2018-Jan-20 21:28N 33°15' E 131°45'0 0.0
2018-Jan-20 20:53N 33°15' E 131°45'0 0.0
2018-Jan-20 17:30N 33°15' E 131°45'0 0.0
2018-Jan-20 16:45N 33°15' E 131°45'0 0.0
2018-Jan-20 16:25N 33°15' E 131°45'0 0.0
2018-Jan-20 15:59N 33°15' E 131°45'0 0.0
2018-Jan-20 15:05N 33°15' E 131°45'0 0.0
2018-Jan-20 14:57N 33°15' E 131°45'0 0.0
2018-Jan-20 14:11N 33°15' E 131°45'0 0.0
2018-Jan-20 14:00N 33°15' E 131°45'0 0.0
2018-Jan-20 13:20N 33°15' E 131°45'0 0.0
2018-Jan-20 12:51N 33°15' E 131°45'0 0.0
2018-Jan-20 12:30N 33°15' E 131°45'0 0.0
2018-Jan-20 12:00N 33°15' E 131°45'0 0.0
2018-Jan-20 11:12N 33°15' E 131°45'0 0.0
2018-Jan-20 10:49N 33°15' E 131°45'0 0.0
2018-Jan-20 10:31N 33°15' E 131°45'0 0.0
2018-Jan-20 09:56N 33°15' E 131°45'0 0.0
2018-Jan-20 09:31N 33°15' E 131°45'0 0.0
2018-Jan-20 08:52N 33°15' E 131°45'0 0.0
2018-Jan-20 07:58N 33°15' E 131°45'0 0.0
2018-Jan-20 07:30N 33°15' E 131°45'0 0.0
2018-Jan-20 07:00N 33°15' E 131°45'0 0.0
2018-Jan-20 06:28N 33°15' E 131°45'0 0.0
2018-Jan-20 05:49N 33°15' E 131°45'0 0.0
2018-Jan-19 23:17N 33°15' E 131°45'0 0.0
2018-Jan-19 22:57N 33°15' E 131°45'1 2.3
2018-Jan-19 22:30N 33°16' E 131°44'510.1
2018-Jan-19 22:01N 33°21' E 131°43'1 2.0
2018-Jan-19 21:30N 33°22' E 131°43'0 0.0
2018-Jan-19 21:01N 33°22' E 131°43'0 0.0
2018-Jan-19 20:30N 33°22' E 131°43'0 0.0
2018-Jan-19 20:00N 33°22' E 131°43'0 0.0
2018-Jan-19 19:30N 33°22' E 131°43'0 0.0
2018-Jan-19 19:01N 33°22' E 131°43'0 0.0
2018-Jan-19 18:31N 33°22' E 131°43'0 0.0
2018-Jan-19 17:53N 33°22' E 131°43'0 0.0
2018-Jan-19 17:30N 33°22' E 131°43'0 0.0
2018-Jan-19 17:00N 33°22' E 131°43'0 0.0
2018-Jan-19 16:31N 33°22' E 131°43'0 0.0
2018-Jan-19 16:00N 33°22' E 131°43'0 0.0
2018-Jan-19 15:29N 33°22' E 131°43'0 0.0
2018-Jan-19 15:00N 33°22' E 131°43'0 0.0
2018-Jan-19 14:31N 33°22' E 131°43'0 0.1
2018-Jan-19 14:00N 33°22' E 131°43'0 0.0
2018-Jan-19 13:31N 33°22' E 131°43'0 0.0
2018-Jan-19 12:51N 33°22' E 131°43'0 0.0
2018-Jan-19 12:28N 33°22' E 131°43'0 0.0
2018-Jan-19 12:00N 33°22' E 131°43'0 0.0
2018-Jan-19 11:31N 33°22' E 131°43'0 0.0
2018-Jan-19 10:51N 33°22' E 131°43'0 0.0
2018-Jan-19 10:30N 33°22' E 131°43'0 0.1
2018-Jan-19 10:00N 33°22' E 131°43'0 0.0
2018-Jan-19 09:30N 33°22' E 131°43'0 0.0
2018-Jan-19 08:58N 33°22' E 131°43'0 0.0
2018-Jan-19 08:30N 33°22' E 131°43'0 0.0
2018-Jan-19 08:00N 33°22' E 131°43'0 0.1
2018-Jan-19 07:30N 33°22' E 131°43'0 0.0
2018-Jan-19 07:01N 33°22' E 131°43'0 0.0
2018-Jan-19 06:31N 33°22' E 131°43'0 0.0
2018-Jan-19 06:01N 33°22' E 131°43'0 0.0
2018-Jan-19 05:30N 33°22' E 131°43'0 0.0
2018-Jan-19 05:00N 33°22' E 131°43'0 0.0
2018-Jan-19 04:31N 33°22' E 131°43'0 0.0
2018-Jan-19 04:01N 33°22' E 131°43'0 0.0
2018-Jan-19 03:31N 33°22' E 131°43'0 0.1
2018-Jan-19 03:00N 33°22' E 131°43'0 0.1
2018-Jan-19 02:30N 33°22' E 131°43'0 0.0
2018-Jan-19 01:53N 33°22' E 131°43'0 0.0
2018-Jan-19 01:31N 33°22' E 131°43'0 0.1
2018-Jan-19 01:00N 33°22' E 131°43'0 0.1
2018-Jan-19 00:26N 33°22' E 131°43'0 0.0
2018-Jan-19 00:00N 33°22' E 131°43'0 0.0
2018-Jan-18 23:31N 33°22' E 131°43'0 0.0
2018-Jan-18 23:00N 33°22' E 131°43'0 0.0
2018-Jan-18 22:27N 33°22' E 131°43'0 0.0
2018-Jan-18 22:01N 33°22' E 131°43'0 0.1
2018-Jan-18 21:28N 33°22' E 131°43'0 0.0
2018-Jan-18 20:11N 33°22' E 131°43'0 0.0
2018-Jan-18 20:01N 33°22' E 131°43'0 0.0
2018-Jan-18 19:29N 33°22' E 131°43'0 0.0
2018-Jan-18 19:00N 33°22' E 131°43'0 0.0
2018-Jan-18 18:30N 33°22' E 131°43'0 0.0
2018-Jan-18 18:00N 33°22' E 131°43'0 0.0
2018-Jan-18 17:31N 33°22' E 131°43'0 0.0
2018-Jan-18 17:00N 33°22' E 131°43'0 0.0
2018-Jan-18 16:31N 33°22' E 131°43'0 0.0
2018-Jan-18 16:00N 33°22' E 131°43'0 0.0
2018-Jan-18 15:31N 33°22' E 131°43'0 0.0
2018-Jan-18 15:00N 33°22' E 131°43'0 0.0
2018-Jan-18 14:28N 33°22' E 131°43'1010.9
2018-Jan-18 13:33N 33°20' E 131°54'413.5
2018-Jan-18 13:16N 33°18' E 131°59'312.3
2018-Jan-18 13:00N 33°16' E 132°01'  
Track history (hours):
 
Tides and Currents Weather Stations Pressure Air Temp Water Temp Dewpoint Dewpoint Depression Visibility Wind Speed Wind Dir Waves Ship Positions

Koushinmaru

Last reported at 2018-Jan-23 06:00 UTC. Time now 2018-Jan-23 06:08 UTC.
Position N 33°50' E 132°20'.

Length 75 m; draft 4.8 m.

Type: Ship. MMSI: 431005815.

Date/timePositionNaut miles runAvg speedWind from/ knotsBaromVisibWave heightAir tempDewpointWater temp
2018-Jan-23 06:00N 33°50' E 132°20'1411.2
2018-Jan-23 04:46N 34°00' E 132°31'512.8
2018-Jan-23 04:23N 34°03' E 132°26'6 9.5
2018-Jan-23 03:46N 34°08' E 132°30'311.1
2018-Jan-23 03:31N 34°11' E 132°30'1 1.5
2018-Jan-23 03:00N 34°12' E 132°29'0 0.0
2018-Jan-23 02:30N 34°12' E 132°29'0 0.0
2018-Jan-23 01:59N 34°12' E 132°29'0 0.0
2018-Jan-23 01:30N 34°12' E 132°29'0 0.0
2018-Jan-23 01:00N 34°12' E 132°29'0 0.0
2018-Jan-23 00:30N 34°12' E 132°29'1 1.2
2018-Jan-23 00:00N 34°11' E 132°30'0 0.2
2018-Jan-22 23:30N 34°11' E 132°30'0 0.0
2018-Jan-22 23:00N 34°11' E 132°30'0 0.0
2018-Jan-22 22:30N 34°11' E 132°30'0 0.0
2018-Jan-22 22:00N 34°11' E 132°30'0 0.0
2018-Jan-22 21:30N 34°11' E 132°30'0 0.0
2018-Jan-22 21:00N 34°11' E 132°30'0 0.0
2018-Jan-22 20:30N 34°11' E 132°30'0 0.0
2018-Jan-22 20:00N 34°12' E 132°30'0 0.0
2018-Jan-22 19:30N 34°11' E 132°30'0 0.0
2018-Jan-22 19:00N 34°11' E 132°30'0 0.0
2018-Jan-22 18:30N 34°11' E 132°30'0 0.1
2018-Jan-22 18:00N 34°11' E 132°30'0 0.0
2018-Jan-22 17:30N 34°11' E 132°30'510.4
2018-Jan-22 17:00N 34°17' E 132°30'611.1
2018-Jan-22 16:30N 34°17' E 132°24'611.3
2018-Jan-22 16:00N 34°12' E 132°20'712.9
2018-Jan-22 15:28N 34°06' E 132°24'813.1
2018-Jan-22 14:52N 34°00' E 132°31'613.1
2018-Jan-22 14:27N 33°55' E 132°30'714.3
2018-Jan-22 13:59N 33°49' E 132°26'713.9
2018-Jan-22 13:30N 33°43' E 132°22'1413.9
2018-Jan-22 12:27N 33°32' E 132°10'614.1
2018-Jan-22 12:00N 33°28' E 132°05'714.3
2018-Jan-22 11:30N 33°22' E 132°00'713.0
2018-Jan-22 10:59N 33°15' E 132°01'1213.1
2018-Jan-22 10:05N 33°04' E 132°06'11 0.4
2018-Jan-21 07:47N 33°15' E 132°01'413.0
2018-Jan-21 07:27N 33°18' E 131°58'613.5
2018-Jan-21 07:00N 33°18' E 131°51'612.9
2018-Jan-21 06:31N 33°18' E 131°43'2 1.1
2018-Jan-21 04:36N 33°16' E 131°41'0 0.0
2018-Jan-21 04:19N 33°16' E 131°41'0 0.0
2018-Jan-21 03:03N 33°16' E 131°41'0 0.0
2018-Jan-21 02:40N 33°16' E 131°41'0 0.6
2018-Jan-21 02:31N 33°16' E 131°41'2 3.4
2018-Jan-21 02:00N 33°18' E 131°41'3 5.1
2018-Jan-21 01:26N 33°21' E 131°41'0 0.0
2018-Jan-21 01:00N 33°21' E 131°41'0 0.0
2018-Jan-21 00:25N 33°21' E 131°41'0 0.1
2018-Jan-20 23:37N 33°21' E 131°41'3 9.5
2018-Jan-20 23:21N 33°19' E 131°42'410.6
2018-Jan-20 22:58N 33°15' E 131°45'0 0.1
2018-Jan-20 21:49N 33°15' E 131°45'0 0.0
2018-Jan-20 21:28N 33°15' E 131°45'0 0.0
2018-Jan-20 20:53N 33°15' E 131°45'0 0.0
2018-Jan-20 17:30N 33°15' E 131°45'0 0.0
2018-Jan-20 16:45N 33°15' E 131°45'0 0.0
2018-Jan-20 16:25N 33°15' E 131°45'0 0.0
2018-Jan-20 15:59N 33°15' E 131°45'0 0.0
2018-Jan-20 15:05N 33°15' E 131°45'0 0.0
2018-Jan-20 14:57N 33°15' E 131°45'0 0.0
2018-Jan-20 14:11N 33°15' E 131°45'0 0.0
2018-Jan-20 14:00N 33°15' E 131°45'0 0.0
2018-Jan-20 13:20N 33°15' E 131°45'0 0.0
2018-Jan-20 12:51N 33°15' E 131°45'0 0.0
2018-Jan-20 12:30N 33°15' E 131°45'0 0.0
2018-Jan-20 12:00N 33°15' E 131°45'0 0.0
2018-Jan-20 11:12N 33°15' E 131°45'0 0.0
2018-Jan-20 10:49N 33°15' E 131°45'0 0.0
2018-Jan-20 10:31N 33°15' E 131°45'0 0.0
2018-Jan-20 09:56N 33°15' E 131°45'0 0.0
2018-Jan-20 09:31N 33°15' E 131°45'0 0.0
2018-Jan-20 08:52N 33°15' E 131°45'0 0.0
2018-Jan-20 07:58N 33°15' E 131°45'0 0.0
2018-Jan-20 07:30N 33°15' E 131°45'0 0.0
2018-Jan-20 07:00N 33°15' E 131°45'0 0.0
2018-Jan-20 06:28N 33°15' E 131°45'0 0.0
2018-Jan-20 05:49N 33°15' E 131°45'0 0.0
2018-Jan-19 23:17N 33°15' E 131°45'0 0.0
2018-Jan-19 22:57N 33°15' E 131°45'1 2.3
2018-Jan-19 22:30N 33°16' E 131°44'510.1
2018-Jan-19 22:01N 33°21' E 131°43'1 2.0
2018-Jan-19 21:30N 33°22' E 131°43'0 0.0
2018-Jan-19 21:01N 33°22' E 131°43'0 0.0
2018-Jan-19 20:30N 33°22' E 131°43'0 0.0
2018-Jan-19 20:00N 33°22' E 131°43'0 0.0
2018-Jan-19 19:30N 33°22' E 131°43'0 0.0
2018-Jan-19 19:01N 33°22' E 131°43'0 0.0
2018-Jan-19 18:31N 33°22' E 131°43'0 0.0
2018-Jan-19 17:53N 33°22' E 131°43'0 0.0
2018-Jan-19 17:30N 33°22' E 131°43'0 0.0
2018-Jan-19 17:00N 33°22' E 131°43'0 0.0
2018-Jan-19 16:31N 33°22' E 131°43'0 0.0
2018-Jan-19 16:00N 33°22' E 131°43'0 0.0
2018-Jan-19 15:29N 33°22' E 131°43'0 0.0
2018-Jan-19 15:00N 33°22' E 131°43'0 0.0
2018-Jan-19 14:31N 33°22' E 131°43'0 0.1
2018-Jan-19 14:00N 33°22' E 131°43'0 0.0
2018-Jan-19 13:31N 33°22' E 131°43'0 0.0
2018-Jan-19 12:51N 33°22' E 131°43'0 0.0
2018-Jan-19 12:28N 33°22' E 131°43'0 0.0
2018-Jan-19 12:00N 33°22' E 131°43'0 0.0
2018-Jan-19 11:31N 33°22' E 131°43'0 0.0
2018-Jan-19 10:51N 33°22' E 131°43'0 0.0
2018-Jan-19 10:30N 33°22' E 131°43'0 0.1
2018-Jan-19 10:00N 33°22' E 131°43'0 0.0
2018-Jan-19 09:30N 33°22' E 131°43'0 0.0
2018-Jan-19 08:58N 33°22' E 131°43'0 0.0
2018-Jan-19 08:30N 33°22' E 131°43'0 0.0
2018-Jan-19 08:00N 33°22' E 131°43'0 0.1
2018-Jan-19 07:30N 33°22' E 131°43'0 0.0
2018-Jan-19 07:01N 33°22' E 131°43'0 0.0
2018-Jan-19 06:31N 33°22' E 131°43'0 0.0
2018-Jan-19 06:01N 33°22' E 131°43'0 0.0
2018-Jan-19 05:30N 33°22' E 131°43'0 0.0
2018-Jan-19 05:00N 33°22' E 131°43'0 0.0
2018-Jan-19 04:31N 33°22' E 131°43'0 0.0
2018-Jan-19 04:01N 33°22' E 131°43'0 0.0
2018-Jan-19 03:31N 33°22' E 131°43'0 0.1
2018-Jan-19 03:00N 33°22' E 131°43'0 0.1
2018-Jan-19 02:30N 33°22' E 131°43'0 0.0
2018-Jan-19 01:53N 33°22' E 131°43'0 0.0
2018-Jan-19 01:31N 33°22' E 131°43'0 0.1
2018-Jan-19 01:00N 33°22' E 131°43'0 0.1
2018-Jan-19 00:26N 33°22' E 131°43'0 0.0
2018-Jan-19 00:00N 33°22' E 131°43'0 0.0
2018-Jan-18 23:31N 33°22' E 131°43'0 0.0
2018-Jan-18 23:00N 33°22' E 131°43'0 0.0
2018-Jan-18 22:27N 33°22' E 131°43'0 0.0
2018-Jan-18 22:01N 33°22' E 131°43'0 0.1
2018-Jan-18 21:28N 33°22' E 131°43'0 0.0
2018-Jan-18 20:11N 33°22' E 131°43'0 0.0
2018-Jan-18 20:01N 33°22' E 131°43'0 0.0
2018-Jan-18 19:29N 33°22' E 131°43'0 0.0
2018-Jan-18 19:00N 33°22' E 131°43'0 0.0
2018-Jan-18 18:30N 33°22' E 131°43'0 0.0
2018-Jan-18 18:00N 33°22' E 131°43'0 0.0
2018-Jan-18 17:31N 33°22' E 131°43'0 0.0
2018-Jan-18 17:00N 33°22' E 131°43'0 0.0
2018-Jan-18 16:31N 33°22' E 131°43'0 0.0
2018-Jan-18 16:00N 33°22' E 131°43'0 0.0
2018-Jan-18 15:31N 33°22' E 131°43'0 0.0
2018-Jan-18 15:00N 33°22' E 131°43'0 0.0
2018-Jan-18 14:28N 33°22' E 131°43'1010.9
2018-Jan-18 13:33N 33°20' E 131°54'413.5
2018-Jan-18 13:16N 33°18' E 131°59'312.3
2018-Jan-18 13:00N 33°16' E 132°01'  

Dump ship's entire track history